sensor_id;sensor_type;location;lat;lon;timestamp;temperature;humidity
5492;DHT22;2768;53.540;10.224;2024-01-10T00:03:55;-4.40;99.90
5492;DHT22;2768;53.540;10.224;2024-01-10T00:09:50;-4.00;99.90
5492;DHT22;2768;53.540;10.224;2024-01-10T00:15:43;-4.20;99.90
5492;DHT22;2768;53.540;10.224;2024-01-10T00:21:37;-4.20;99.90
5492;DHT22;2768;53.540;10.224;2024-01-10T00:27:32;-4.50;99.90
5492;DHT22;2768;53.540;10.224;2024-01-10T00:33:25;-3.40;99.90
5492;DHT22;2768;53.540;10.224;2024-01-10T00:39:20;-3.40;99.90
5492;DHT22;2768;53.540;10.224;2024-01-10T00:45:16;-3.90;99.90
5492;DHT22;2768;53.540;10.224;2024-01-10T00:51:10;-4.20;99.90
5492;DHT22;2768;53.540;10.224;2024-01-10T00:57:03;-4.10;99.90
5492;DHT22;2768;53.540;10.224;2024-01-10T01:02:58;-4.10;99.90
5492;DHT22;2768;53.540;10.224;2024-01-10T01:08:51;-3.60;99.90
5492;DHT22;2768;53.540;10.224;2024-01-10T01:14:44;-3.80;99.90
5492;DHT22;2768;53.540;10.224;2024-01-10T01:20:39;-3.90;99.90
5492;DHT22;2768;53.540;10.224;2024-01-10T01:26:32;-3.80;99.90
5492;DHT22;2768;53.540;10.224;2024-01-10T01:32:25;-4.20;99.90
5492;DHT22;2768;53.540;10.224;2024-01-10T01:38:20;-3.60;99.90
5492;DHT22;2768;53.540;10.224;2024-01-10T01:44:13;-3.90;99.90
5492;DHT22;2768;53.540;10.224;2024-01-10T01:50:07;-4.10;99.90
5492;DHT22;2768;53.540;10.224;2024-01-10T01:56:06;-4.00;99.90
5492;DHT22;2768;53.540;10.224;2024-01-10T02:02:01;-4.10;99.90
5492;DHT22;2768;53.540;10.224;2024-01-10T02:07:55;-4.40;99.90
5492;DHT22;2768;53.540;10.224;2024-01-10T02:13:50;-4.60;99.90
5492;DHT22;2768;53.540;10.224;2024-01-10T02:19:46;-4.10;99.90
5492;DHT22;2768;53.540;10.224;2024-01-10T02:25:40;-4.20;99.90
5492;DHT22;2768;53.540;10.224;2024-01-10T02:31:35;-3.80;99.90
5492;DHT22;2768;53.540;10.224;2024-01-10T02:37:28;-3.40;99.90
5492;DHT22;2768;53.540;10.224;2024-01-10T02:43:23;-3.70;99.90
5492;DHT22;2768;53.540;10.224;2024-01-10T02:49:16;-3.80;99.90
5492;DHT22;2768;53.540;10.224;2024-01-10T02:55:10;-3.50;99.90
5492;DHT22;2768;53.540;10.224;2024-01-10T03:01:05;-3.40;99.90
5492;DHT22;2768;53.540;10.224;2024-01-10T03:06:58;-3.40;99.90
5492;DHT22;2768;53.540;10.224;2024-01-10T03:12:51;-3.30;99.90
5492;DHT22;2768;53.540;10.224;2024-01-10T03:18:46;-3.40;99.90
5492;DHT22;2768;53.540;10.224;2024-01-10T03:24:40;-3.60;99.90
5492;DHT22;2768;53.540;10.224;2024-01-10T03:30:33;-3.60;99.90
5492;DHT22;2768;53.540;10.224;2024-01-10T03:36:28;-3.50;99.90
5492;DHT22;2768;53.540;10.224;2024-01-10T03:42:24;-3.40;99.90
5492;DHT22;2768;53.540;10.224;2024-01-10T03:48:17;-3.50;99.90
5492;DHT22;2768;53.540;10.224;2024-01-10T03:54:12;-3.40;99.90
5492;DHT22;2768;53.540;10.224;2024-01-10T04:00:06;-3.50;99.90
5492;DHT22;2768;53.540;10.224;2024-01-10T04:06:00;-3.30;99.90
5492;DHT22;2768;53.540;10.224;2024-01-10T04:11:55;-3.10;99.90
5492;DHT22;2768;53.540;10.224;2024-01-10T04:17:48;-3.10;99.90
5492;DHT22;2768;53.540;10.224;2024-01-10T04:23:42;-2.90;99.90
5492;DHT22;2768;53.540;10.224;2024-01-10T04:29:37;-3.30;99.90
5492;DHT22;2768;53.540;10.224;2024-01-10T04:35:30;-3.20;99.90
5492;DHT22;2768;53.540;10.224;2024-01-10T04:41:23;-3.30;99.90
5492;DHT22;2768;53.540;10.224;2024-01-10T04:47:18;-3.10;99.90
5492;DHT22;2768;53.540;10.224;2024-01-10T04:53:11;-2.90;99.90
5492;DHT22;2768;53.540;10.224;2024-01-10T04:59:05;-2.60;99.90
5492;DHT22;2768;53.540;10.224;2024-01-10T05:04:59;-2.60;99.90
5492;DHT22;2768;53.540;10.224;2024-01-10T05:10:53;-2.50;99.90
5492;DHT22;2768;53.540;10.224;2024-01-10T05:16:47;-2.30;99.90
5492;DHT22;2768;53.540;10.224;2024-01-10T05:22:42;-2.30;99.90
5492;DHT22;2768;53.540;10.224;2024-01-10T05:28:36;-2.30;99.90
5492;DHT22;2768;53.540;10.224;2024-01-10T05:34:29;-2.20;99.90
5492;DHT22;2768;53.540;10.224;2024-01-10T05:40:24;-2.20;99.90
5492;DHT22;2768;53.540;10.224;2024-01-10T05:46:17;-2.20;99.90
5492;DHT22;2768;53.540;10.224;2024-01-10T05:52:12;-2.10;1.00
5492;DHT22;2768;53.540;10.224;2024-01-10T05:58:06;-2.10;1.00
5492;DHT22;2768;53.540;10.224;2024-01-10T06:04:01;-2.00;1.00
5492;DHT22;2768;53.540;10.224;2024-01-10T06:09:54;-1.90;1.00
5492;DHT22;2768;53.540;10.224;2024-01-10T06:15:52;-1.90;1.00
5492;DHT22;2768;53.540;10.224;2024-01-10T06:21:45;-1.90;1.00
5492;DHT22;2768;53.540;10.224;2024-01-10T06:27:39;-1.80;1.00
5492;DHT22;2768;53.540;10.224;2024-01-10T06:33:34;-1.90;1.00
5492;DHT22;2768;53.540;10.224;2024-01-10T06:39:30;-1.80;1.00
5492;DHT22;2768;53.540;10.224;2024-01-10T06:45:23;-1.80;1.00
5492;DHT22;2768;53.540;10.224;2024-01-10T06:51:18;-1.70;1.00
5492;DHT22;2768;53.540;10.224;2024-01-10T06:57:11;-1.80;1.00
5492;DHT22;2768;53.540;10.224;2024-01-10T07:03:04;-1.70;1.00
5492;DHT22;2768;53.540;10.224;2024-01-10T07:08:59;-1.70;1.00
5492;DHT22;2768;53.540;10.224;2024-01-10T07:14:53;-1.70;1.00
5492;DHT22;2768;53.540;10.224;2024-01-10T07:20:46;-1.60;1.00
5492;DHT22;2768;53.540;10.224;2024-01-10T07:26:41;-1.70;1.00
5492;DHT22;2768;53.540;10.224;2024-01-10T07:32:34;-1.70;1.00
5492;DHT22;2768;53.540;10.224;2024-01-10T07:38:28;-1.70;1.00
5492;DHT22;2768;53.540;10.224;2024-01-10T07:44:23;-1.60;1.00
5492;DHT22;2768;53.540;10.224;2024-01-10T07:50:18;-1.60;1.00
5492;DHT22;2768;53.540;10.224;2024-01-10T07:56:14;-1.60;1.00
5492;DHT22;2768;53.540;10.224;2024-01-10T08:02:09;-1.60;1.00
5492;DHT22;2768;53.540;10.224;2024-01-10T08:08:04;-1.60;1.00
5492;DHT22;2768;53.540;10.224;2024-01-10T08:13:58;-1.50;1.00
5492;DHT22;2768;53.540;10.224;2024-01-10T08:19:52;-1.50;1.00
5492;DHT22;2768;53.540;10.224;2024-01-10T08:25:46;-1.50;1.00
5492;DHT22;2768;53.540;10.224;2024-01-10T08:31:39;-1.40;1.00
5492;DHT22;2768;53.540;10.224;2024-01-10T08:37:33;-1.50;1.00
5492;DHT22;2768;53.540;10.224;2024-01-10T08:43:26;-1.40;1.00
5492;DHT22;2768;53.540;10.224;2024-01-10T08:49:20;-1.40;1.00
5492;DHT22;2768;53.540;10.224;2024-01-10T08:55:15;-1.40;1.00
5492;DHT22;2768;53.540;10.224;2024-01-10T09:01:08;-1.30;1.00
5492;DHT22;2768;53.540;10.224;2024-01-10T09:07:01;-1.30;1.00
5492;DHT22;2768;53.540;10.224;2024-01-10T09:12:58;-1.40;1.00
5492;DHT22;2768;53.540;10.224;2024-01-10T09:18:51;-1.50;1.00
5492;DHT22;2768;53.540;10.224;2024-01-10T09:24:48;-1.50;1.00
5492;DHT22;2768;53.540;10.224;2024-01-10T09:30:43;-1.50;1.00
5492;DHT22;2768;53.540;10.224;2024-01-10T09:36:36;-1.30;1.00
5492;DHT22;2768;53.540;10.224;2024-01-10T09:42:30;-1.30;1.00
5492;DHT22;2768;53.540;10.224;2024-01-10T09:48:27;-1.20;1.00
5492;DHT22;2768;53.540;10.224;2024-01-10T09:54:21;-1.30;1.00
5492;DHT22;2768;53.540;10.224;2024-01-10T10:00:16;-1.40;1.00
5492;DHT22;2768;53.540;10.224;2024-01-10T10:06:11;-1.30;1.00
5492;DHT22;2768;53.540;10.224;2024-01-10T10:12:07;-1.30;1.00
5492;DHT22;2768;53.540;10.224;2024-01-10T10:18:01;-1.40;1.00
5492;DHT22;2768;53.540;10.224;2024-01-10T10:23:59;-1.20;1.00
5492;DHT22;2768;53.540;10.224;2024-01-10T10:29:53;-1.10;1.00
5492;DHT22;2768;53.540;10.224;2024-01-10T10:35:49;-1.30;1.00
5492;DHT22;2768;53.540;10.224;2024-01-10T10:41:47;-1.10;1.00
5492;DHT22;2768;53.540;10.224;2024-01-10T10:47:43;-1.00;1.00
5492;DHT22;2768;53.540;10.224;2024-01-10T10:53:39;-0.90;1.00
5492;DHT22;2768;53.540;10.224;2024-01-10T10:59:34;-0.70;1.00
5492;DHT22;2768;53.540;10.224;2024-01-10T11:05:31;-0.60;1.00
5492;DHT22;2768;53.540;10.224;2024-01-10T11:11:35;-0.70;1.00
5492;DHT22;2768;53.540;10.224;2024-01-10T11:17:52;-0.60;1.00
5492;DHT22;2768;53.540;10.224;2024-01-10T11:23:51;-0.70;1.00
5492;DHT22;2768;53.540;10.224;2024-01-10T11:29:46;-0.70;1.00
5492;DHT22;2768;53.540;10.224;2024-01-10T11:35:41;-0.70;1.00
5492;DHT22;2768;53.540;10.224;2024-01-10T11:41:35;-0.30;1.00
5492;DHT22;2768;53.540;10.224;2024-01-10T11:47:29;-0.30;1.00
5492;DHT22;2768;53.540;10.224;2024-01-10T11:53:40;-0.50;1.00
5492;DHT22;2768;53.540;10.224;2024-01-10T11:59:34;-0.40;1.00
5492;DHT22;2768;53.540;10.224;2024-01-10T12:05:28;-0.50;1.00
5492;DHT22;2768;53.540;10.224;2024-01-10T12:11:23;-0.50;1.00
5492;DHT22;2768;53.540;10.224;2024-01-10T12:17:17;-0.40;1.00
5492;DHT22;2768;53.540;10.224;2024-01-10T12:23:11;-0.40;1.00
5492;DHT22;2768;53.540;10.224;2024-01-10T12:29:30;-0.40;1.00
5492;DHT22;2768;53.540;10.224;2024-01-10T12:35:24;-0.50;1.00
5492;DHT22;2768;53.540;10.224;2024-01-10T12:41:18;-0.40;1.00
5492;DHT22;2768;53.540;10.224;2024-01-10T12:47:19;-0.40;1.00
5492;DHT22;2768;53.540;10.224;2024-01-10T12:53:13;-0.30;1.00
5492;DHT22;2768;53.540;10.224;2024-01-10T12:59:06;-0.20;1.00
5492;DHT22;2768;53.540;10.224;2024-01-10T13:05:03;-0.50;1.00
5492;DHT22;2768;53.540;10.224;2024-01-10T13:10:56;-0.40;1.00
5492;DHT22;2768;53.540;10.224;2024-01-10T13:16:49;-0.40;1.00
5492;DHT22;2768;53.540;10.224;2024-01-10T13:22:52;-0.50;1.00
5492;DHT22;2768;53.540;10.224;2024-01-10T13:28:45;-0.70;1.00
5492;DHT22;2768;53.540;10.224;2024-01-10T13:34:38;-0.40;1.00
5492;DHT22;2768;53.540;10.224;2024-01-10T13:40:33;-0.30;1.00
5492;DHT22;2768;53.540;10.224;2024-01-10T13:46:26;-0.30;1.00
5492;DHT22;2768;53.540;10.224;2024-01-10T13:52:20;-0.30;1.00
5492;DHT22;2768;53.540;10.224;2024-01-10T13:58:14;-0.40;1.00
5492;DHT22;2768;53.540;10.224;2024-01-10T14:04:07;-0.30;1.00
5492;DHT22;2768;53.540;10.224;2024-01-10T14:10:01;-0.40;1.00
5492;DHT22;2768;53.540;10.224;2024-01-10T14:15:57;-0.40;1.00
5492;DHT22;2768;53.540;10.224;2024-01-10T14:21:51;-0.40;1.00
5492;DHT22;2768;53.540;10.224;2024-01-10T14:27:44;-0.50;1.00
5492;DHT22;2768;53.540;10.224;2024-01-10T14:33:39;-0.50;1.00
5492;DHT22;2768;53.540;10.224;2024-01-10T14:39:32;-0.50;1.00
5492;DHT22;2768;53.540;10.224;2024-01-10T14:45:26;-0.50;1.00
5492;DHT22;2768;53.540;10.224;2024-01-10T14:51:21;-0.50;1.00
5492;DHT22;2768;53.540;10.224;2024-01-10T14:57:14;-0.60;1.00
5492;DHT22;2768;53.540;10.224;2024-01-10T15:03:10;-0.70;1.00
5492;DHT22;2768;53.540;10.224;2024-01-10T15:09:18;-0.90;1.00
5492;DHT22;2768;53.540;10.224;2024-01-10T15:15:12;-0.90;1.00
5492;DHT22;2768;53.540;10.224;2024-01-10T15:21:05;-0.70;1.00
5492;DHT22;2768;53.540;10.224;2024-01-10T15:27:00;-0.70;1.00
5492;DHT22;2768;53.540;10.224;2024-01-10T15:32:58;-0.70;1.00
5492;DHT22;2768;53.540;10.224;2024-01-10T15:38:51;-0.90;1.00
5492;DHT22;2768;53.540;10.224;2024-01-10T15:44:46;-0.80;1.00
5492;DHT22;2768;53.540;10.224;2024-01-10T15:50:39;-0.90;1.00
5492;DHT22;2768;53.540;10.224;2024-01-10T15:56:33;-0.80;1.00
5492;DHT22;2768;53.540;10.224;2024-01-10T16:02:31;-0.80;1.00
5492;DHT22;2768;53.540;10.224;2024-01-10T16:08:26;-0.80;1.00
5492;DHT22;2768;53.540;10.224;2024-01-10T16:14:20;-0.80;1.00
5492;DHT22;2768;53.540;10.224;2024-01-10T16:20:14;-0.90;1.00
5492;DHT22;2768;53.540;10.224;2024-01-10T16:26:09;-0.80;1.00
5492;DHT22;2768;53.540;10.224;2024-01-10T16:32:03;-0.90;1.00
5492;DHT22;2768;53.540;10.224;2024-01-10T16:37:59;-0.80;1.00
5492;DHT22;2768;53.540;10.224;2024-01-10T16:43:53;-0.80;1.00
5492;DHT22;2768;53.540;10.224;2024-01-10T16:49:46;-0.80;1.00
5492;DHT22;2768;53.540;10.224;2024-01-10T16:55:41;-0.80;1.00
5492;DHT22;2768;53.540;10.224;2024-01-10T17:01:34;-0.80;1.00
5492;DHT22;2768;53.540;10.224;2024-01-10T17:07:28;-0.90;1.00
5492;DHT22;2768;53.540;10.224;2024-01-10T17:13:23;-0.90;1.00
5492;DHT22;2768;53.540;10.224;2024-01-10T17:19:16;-0.90;1.00
5492;DHT22;2768;53.540;10.224;2024-01-10T17:25:09;-1.00;1.00
5492;DHT22;2768;53.540;10.224;2024-01-10T17:31:04;-0.90;1.00
5492;DHT22;2768;53.540;10.224;2024-01-10T17:36:57;-0.80;1.00
5492;DHT22;2768;53.540;10.224;2024-01-10T17:42:54;-0.80;1.00
5492;DHT22;2768;53.540;10.224;2024-01-10T17:48:49;-0.90;1.00
5492;DHT22;2768;53.540;10.224;2024-01-10T17:54:43;-1.00;1.00
5492;DHT22;2768;53.540;10.224;2024-01-10T18:00:38;-1.00;1.00
5492;DHT22;2768;53.540;10.224;2024-01-10T18:06:32;-1.00;1.00
5492;DHT22;2768;53.540;10.224;2024-01-10T18:12:26;-0.90;1.00
5492;DHT22;2768;53.540;10.224;2024-01-10T18:18:19;-1.00;1.00
5492;DHT22;2768;53.540;10.224;2024-01-10T18:24:14;-0.90;1.00
5492;DHT22;2768;53.540;10.224;2024-01-10T18:30:08;-1.00;1.00
5492;DHT22;2768;53.540;10.224;2024-01-10T18:36:03;-0.90;1.00
5492;DHT22;2768;53.540;10.224;2024-01-10T18:41:57;-0.90;1.00
5492;DHT22;2768;53.540;10.224;2024-01-10T18:47:52;-1.00;1.00
5492;DHT22;2768;53.540;10.224;2024-01-10T18:53:45;-1.10;1.00
5492;DHT22;2768;53.540;10.224;2024-01-10T18:59:40;-0.90;1.00
5492;DHT22;2768;53.540;10.224;2024-01-10T19:05:33;-0.90;1.00
5492;DHT22;2768;53.540;10.224;2024-01-10T19:11:26;-0.80;1.00
5492;DHT22;2768;53.540;10.224;2024-01-10T19:17:21;-0.80;1.00
5492;DHT22;2768;53.540;10.224;2024-01-10T19:23:15;-0.80;1.00
5492;DHT22;2768;53.540;10.224;2024-01-10T19:29:10;-1.00;1.00
5492;DHT22;2768;53.540;10.224;2024-01-10T19:35:06;-1.10;1.00
5492;DHT22;2768;53.540;10.224;2024-01-10T19:40:59;-1.00;1.00
5492;DHT22;2768;53.540;10.224;2024-01-10T19:46:52;-1.00;1.00
5492;DHT22;2768;53.540;10.224;2024-01-10T19:52:47;-1.10;1.00
5492;DHT22;2768;53.540;10.224;2024-01-10T19:58:41;-0.90;1.00
5492;DHT22;2768;53.540;10.224;2024-01-10T20:04:34;-0.80;1.00
5492;DHT22;2768;53.540;10.224;2024-01-10T20:10:28;-0.90;1.00
5492;DHT22;2768;53.540;10.224;2024-01-10T20:16:22;-0.80;1.00
5492;DHT22;2768;53.540;10.224;2024-01-10T20:22:15;-0.90;1.00
5492;DHT22;2768;53.540;10.224;2024-01-10T20:28:11;-1.00;1.00
5492;DHT22;2768;53.540;10.224;2024-01-10T20:34:05;-0.90;1.00
5492;DHT22;2768;53.540;10.224;2024-01-10T20:39:58;-1.10;1.00
5492;DHT22;2768;53.540;10.224;2024-01-10T20:45:53;-1.20;1.00
5492;DHT22;2768;53.540;10.224;2024-01-10T20:51:46;-1.00;1.00
5492;DHT22;2768;53.540;10.224;2024-01-10T20:57:39;-1.10;1.00
5492;DHT22;2768;53.540;10.224;2024-01-10T21:03:34;-0.90;1.00
5492;DHT22;2768;53.540;10.224;2024-01-10T21:09:27;-1.20;1.00
5492;DHT22;2768;53.540;10.224;2024-01-10T21:15:21;-1.00;1.00
5492;DHT22;2768;53.540;10.224;2024-01-10T21:21:16;-1.10;1.00
5492;DHT22;2768;53.540;10.224;2024-01-10T21:27:09;-1.00;1.00
5492;DHT22;2768;53.540;10.224;2024-01-10T21:33:03;-0.90;1.00
5492;DHT22;2768;53.540;10.224;2024-01-10T21:38:58;-1.10;1.00
5492;DHT22;2768;53.540;10.224;2024-01-10T21:44:51;-1.10;1.00
5492;DHT22;2768;53.540;10.224;2024-01-10T21:50:45;-1.20;1.00
5492;DHT22;2768;53.540;10.224;2024-01-10T21:56:40;-1.10;1.00
5492;DHT22;2768;53.540;10.224;2024-01-10T22:02:34;-1.10;1.00
5492;DHT22;2768;53.540;10.224;2024-01-10T22:08:29;-1.00;1.00
5492;DHT22;2768;53.540;10.224;2024-01-10T22:14:23;-1.00;1.00
5492;DHT22;2768;53.540;10.224;2024-01-10T22:20:17;-0.90;1.00
5492;DHT22;2768;53.540;10.224;2024-01-10T22:26:10;-1.20;1.00
5492;DHT22;2768;53.540;10.224;2024-01-10T22:32:05;-1.00;1.00
5492;DHT22;2768;53.540;10.224;2024-01-10T22:37:58;-1.00;1.00
5492;DHT22;2768;53.540;10.224;2024-01-10T22:43:52;-1.20;1.00
5492;DHT22;2768;53.540;10.224;2024-01-10T22:49:46;-1.20;1.00
5492;DHT22;2768;53.540;10.224;2024-01-10T22:55:40;-0.90;13.40
5492;DHT22;2768;53.540;10.224;2024-01-10T23:01:33;-1.00;25.50
5492;DHT22;2768;53.540;10.224;2024-01-10T23:07:28;-1.00;48.60
5492;DHT22;2768;53.540;10.224;2024-01-10T23:13:21;-1.00;68.60
5492;DHT22;2768;53.540;10.224;2024-01-10T23:19:14;-0.90;96.10
5492;DHT22;2768;53.540;10.224;2024-01-10T23:25:09;-1.00;99.90
5492;DHT22;2768;53.540;10.224;2024-01-10T23:31:03;-0.90;99.90
5492;DHT22;2768;53.540;10.224;2024-01-10T23:36:56;-0.90;99.90
5492;DHT22;2768;53.540;10.224;2024-01-10T23:42:51;-0.80;99.90
5492;DHT22;2768;53.540;10.224;2024-01-10T23:48:44;-0.80;99.90
5492;DHT22;2768;53.540;10.224;2024-01-10T23:54:38;-0.80;99.90
